Cassville, MO (65623)

8:16 AM CDT on June 30, 2015 (GMT -0500)
Sehrbrock house in Purdy | | Change Station
CLOSE
Current Station
Personal Weather Station
Location: Purdy, MO
Elevation: 1490 ft
Nearby Weather Stations

Elev 1490 ft 36.82 °N, 93.92 °W | Updated 9 seconds ago

Clear
Clear
70.7 °F
Feels Like 71 °F
N
2.3
Wind Variable Wind from WSW
Gusts 2.5 mph

Today
High -- | Low -- °F
--% Chance of Precip.
Yesterday
High -- | Low -- °F
Precip. -- in
5:59 AM 8:38 PM
Waxing Gibbous, 97% visible
Pressure 30.00 in
Visibility 10.0 miles
Clouds Clear
Heat Index 71 °F
Dew Point 65 °F
Humidity 82%
Rainfall in
Snow Depth Not available.
UV 2 out of 12
Pollen 4.10 out of 12
Air Quality Not available.
Flu Activity Sporadic
METAR KHFJ 301255Z AUTO 21004KT 10SM CLR 20/18 A3000 RMK AO2

More Conditions Fewer Conditions

Pressure 30.00 in
Visibility 10.0 miles
Clouds Clear
Heat Index 71 °F
Dew Point 65 °F
Humidity 82%
Rainfall in
Snow Depth Not available.
UV 2 out of 12
Pollen 4.10 out of 12
Air Quality Not available.
Flu Activity Sporadic
METAR KHFJ 301255Z AUTO 21004KT 10SM CLR 20/18 A3000 RMK AO2

More Conditions Fewer Conditions

10-Day Weather Forecast

×

Almanac

Astronomy

Jun. 30, 2015 Rise Set
Actual Time
Civil Twilight
Nautical Twilight
Astronomical Twilight
Moon
Length of Visible Light
Length of Day
Tomorrow will be .
, % of the Moon is Illuminated

Today's Extremes

State Highs State Lows

Community

WunderPhotos

Upload Photos

1,833,994 photos uploaded!

WunderBlogs® & News

Nearby

Air Quality

  Air Quality AQ Index Pollutant
Not available.

Snow Depth

Station Depth Elevation

Earthquake Activity

City Distance Mag. Time & Date
Minimum magnitude displayed is 2.5.

Coastal Water Temperatures

Place Temperature

Stations

Nearby Weather Stations

Station Location Temp. Windchill Dew Point Humidity Wind Precip. Elev Updated Type